Time;durP1;ratioP1;P1;durP2;ratioP2;P2;SDS_P1;SDS_P2;PMS_P1;PMS_P2;Temp;Humidity;BMP_temperature;BMP_pressure;BME280_temperature;BME280_humidity;BME280_pressure;Samples;Min_cycle;Max_cycle;Signal;HPM_P1;HPM_P2
2020/10/25 00:00:17;;;;;;;1.4;0.9;;;;;;;;;;;;;
2020/10/25 00:02:43;;;;;;;1.7;1;;;;;;;;;;;;;
2020/10/25 00:05:08;;;;;;;1.1;0.8;;;;;;;;;;;;;
2020/10/25 00:07:33;;;;;;;2;1.2;;;;;;;;;;;;;
2020/10/25 00:09:58;;;;;;;2.3;1.2;;;;;;;;;;;;;
2020/10/25 00:12:26;;;;;;;1.9;1.3;;;;;;;;;;;;;
2020/10/25 00:14:51;;;;;;;1.4;1.1;;;;;;;;;;;;;
2020/10/25 00:17:17;;;;;;;2.5;0.8;;;;;;;;;;;;;
2020/10/25 00:19:42;;;;;;;2.1;1.1;;;;;;;;;;;;;
2020/10/25 00:22:11;;;;;;;3;1.6;;;;;;;;;;;;;
2020/10/25 00:24:45;;;;;;;2.3;1.3;;;;;;;;;;;;;
2020/10/25 00:26:59;;;;;;;2;1.4;;;;;;;;;;;;;
2020/10/25 00:29:24;;;;;;;0.9;0.8;;;;;;;;;;;;;
2020/10/25 00:31:50;;;;;;;2.8;1.3;;;;;;;;;;;;;
2020/10/25 00:34:15;;;;;;;1.3;0.8;;;;;;;;;;;;;
2020/10/25 00:36:41;;;;;;;0.8;0.7;;;;;;;;;;;;;
2020/10/25 00:39:07;;;;;;;0.5;0.4;;;;;;;;;;;;;
2020/10/25 00:41:32;;;;;;;0.9;0.6;;;;;;;;;;;;;
2020/10/25 00:43:57;;;;;;;0.5;0.5;;;;;;;;;;;;;
2020/10/25 00:46:24;;;;;;;1.4;0.8;;;;;;;;;;;;;
2020/10/25 00:48:48;;;;;;;3.8;1;;;;;;;;;;;;;
2020/10/25 00:51:15;;;;;;;0.8;0.6;;;;;;;;;;;;;
2020/10/25 00:53:40;;;;;;;1.9;0.8;;;;;;;;;;;;;
2020/10/25 00:56:06;;;;;;;2.3;0.8;;;;;;;;;;;;;
2020/10/25 00:58:31;;;;;;;0.8;0.6;;;;;;;;;;;;;
2020/10/25 01:00:56;;;;;;;0.8;0.6;;;;;;;;;;;;;
2020/10/25 01:03:21;;;;;;;0.7;0.5;;;;;;;;;;;;;
2020/10/25 01:05:47;;;;;;;1.4;0.8;;;;;;;;;;;;;
2020/10/25 01:08:12;;;;;;;1.3;0.7;;;;;;;;;;;;;
2020/10/25 01:10:37;;;;;;;0.9;0.8;;;;;;;;;;;;;
2020/10/25 01:13:02;;;;;;;1.5;1;;;;;;;;;;;;;
2020/10/25 01:15:29;;;;;;;0.7;0.6;;;;;;;;;;;;;
2020/10/25 01:17:54;;;;;;;0.5;0.5;;;;;;;;;;;;;
2020/10/25 01:20:21;;;;;;;0.5;0.5;;;;;;;;;;;;;
2020/10/25 01:22:46;;;;;;;0.6;0.5;;;;;;;;;;;;;
2020/10/25 01:25:14;;;;;;;0.7;0.7;;;;;;;;;;;;;
2020/10/25 01:27:41;;;;;;;0.9;0.6;;;;;;;;;;;;;
2020/10/25 01:30:06;;;;;;;0.7;0.6;;;;;;;;;;;;;
2020/10/25 01:32:32;;;;;;;0.7;0.6;;;;;;;;;;;;;
2020/10/25 01:34:57;;;;;;;0.9;0.6;;;;;;;;;;;;;
2020/10/25 01:37:24;;;;;;;0.7;0.6;;;;;;;;;;;;;
2020/10/25 01:39:49;;;;;;;0.9;0.5;;;;;;;;;;;;;
2020/10/25 01:42:15;;;;;;;0.8;0.6;;;;;;;;;;;;;
2020/10/25 01:44:40;;;;;;;0.7;0.5;;;;;;;;;;;;;
2020/10/25 01:47:08;;;;;;;1.6;0.8;;;;;;;;;;;;;
2020/10/25 01:49:33;;;;;;;1.6;0.8;;;;;;;;;;;;;
2020/10/25 01:51:59;;;;;;;3.3;2.8;;;;;;;;;;;;;
2020/10/25 01:54:24;;;;;;;2.7;1.2;;;;;;;;;;;;;
2020/10/25 01:56:50;;;;;;;3.6;1.2;;;;;;;;;;;;;
2020/10/25 01:59:15;;;;;;;2.9;0.9;;;;;;;;;;;;;
2020/10/25 02:01:41;;;;;;;0.8;0.6;;;;;;;;;;;;;
2020/10/25 02:04:05;;;;;;;0.9;0.6;;;;;;;;;;;;;
2020/10/25 02:06:32;;;;;;;1.6;0.8;;;;;;;;;;;;;
2020/10/25 02:08:57;;;;;;;0.5;0.4;;;;;;;;;;;;;
2020/10/25 02:11:23;;;;;;;0.4;0.4;;;;;;;;;;;;;
2020/10/25 02:13:48;;;;;;;0.5;0.5;;;;;;;;;;;;;
2020/10/25 02:16:15;;;;;;;0.8;0.6;;;;;;;;;;;;;
2020/10/25 02:18:40;;;;;;;0.5;0.5;;;;;;;;;;;;;
2020/10/25 02:21:06;;;;;;;0.4;0.4;;;;;;;;;;;;;
2020/10/25 02:23:31;;;;;;;0.4;0.4;;;;;;;;;;;;;
2020/10/25 02:25:57;;;;;;;0.4;0.4;;;;;;;;;;;;;
2020/10/25 02:28:22;;;;;;;0.6;0.4;;;;;;;;;;;;;
2020/10/25 02:30:47;;;;;;;0.7;0.6;;;;;;;;;;;;;
2020/10/25 02:33:12;;;;;;;0.7;0.5;;;;;;;;;;;;;
2020/10/25 02:35:37;;;;;;;1.3;0.5;;;;;;;;;;;;;
2020/10/25 02:38:04;;;;;;;0.4;0.4;;;;;;;;;;;;;
2020/10/25 02:40:29;;;;;;;0.5;0.4;;;;;;;;;;;;;
2020/10/25 02:42:54;;;;;;;0.5;0.5;;;;;;;;;;;;;
2020/10/25 02:45:19;;;;;;;0.7;0.5;;;;;;;;;;;;;
2020/10/25 02:47:47;;;;;;;0.6;0.4;;;;;;;;;;;;;
2020/10/25 02:50:12;;;;;;;1;0.5;;;;;;;;;;;;;
2020/10/25 02:52:38;;;;;;;0.6;0.4;;;;;;;;;;;;;
2020/10/25 02:55:03;;;;;;;0.4;0.4;;;;;;;;;;;;;
2020/10/25 02:57:29;;;;;;;0.8;0.6;;;;;;;;;;;;;
2020/10/25 02:59:54;;;;;;;0.7;0.4;;;;;;;;;;;;;
2020/10/25 03:02:19;;;;;;;0.5;0.4;;;;;;;;;;;;;
2020/10/25 03:04:44;;;;;;;0.4;0.4;;;;;;;;;;;;;
2020/10/25 03:07:09;;;;;;;0.3;0.3;;;;;;;;;;;;;
2020/10/25 03:09:35;;;;;;;0.8;0.6;;;;;;;;;;;;;
2020/10/25 03:12:00;;;;;;;0.8;0.4;;;;;;;;;;;;;
2020/10/25 03:14:26;;;;;;;0.5;0.4;;;;;;;;;;;;;
2020/10/25 03:16:51;;;;;;;1.1;0.6;;;;;;;;;;;;;
2020/10/25 03:19:17;;;;;;;0.3;0.3;;;;;;;;;;;;;
2020/10/25 03:21:42;;;;;;;0.3;0.3;;;;;;;;;;;;;
2020/10/25 03:24:07;;;;;;;0.6;0.5;;;;;;;;;;;;;
2020/10/25 03:26:33;;;;;;;0.3;0.3;;;;;;;;;;;;;
2020/10/25 03:28:58;;;;;;;0.8;0.5;;;;;;;;;;;;;
2020/10/25 03:31:24;;;;;;;0.3;0.3;;;;;;;;;;;;;
2020/10/25 03:33:49;;;;;;;0.7;0.6;;;;;;;;;;;;;
2020/10/25 03:36:14;;;;;;;0.4;0.4;;;;;;;;;;;;;
2020/10/25 03:38:39;;;;;;;0.3;0.3;;;;;;;;;;;;;
2020/10/25 03:41:05;;;;;;;0.7;0.3;;;;;;;;;;;;;
2020/10/25 03:43:30;;;;;;;2.1;0.5;;;;;;;;;;;;;
2020/10/25 03:45:57;;;;;;;0.3;0.3;;;;;;;;;;;;;
2020/10/25 03:48:22;;;;;;;0.3;0.3;;;;;;;;;;;;;
2020/10/25 03:50:48;;;;;;;0.4;0.3;;;;;;;;;;;;;
2020/10/25 03:53:13;;;;;;;0.7;0.3;;;;;;;;;;;;;
2020/10/25 03:55:40;;;;;;;0.5;0.4;;;;;;;;;;;;;
2020/10/25 03:58:05;;;;;;;0.6;0.5;;;;;;;;;;;;;
2020/10/25 04:02:30;;;;;;;0.5;0.5;;;;;;;6.43;90.61035;935.0942;;;;
2020/10/25 04:04:55;;;;;;;0.6;0.5;;;;;;;6.45;90.3877;935.0906;;;;
2020/10/25 04:07:23;;;;;;;0.4;0.4;;;;;;;6.28;91.26758;935.0418;;;;
2020/10/25 04:09:48;;;;;;;0.5;0.4;;;;;;;6.26;91.57813;934.9711;;;;
2020/10/25 04:12:15;;;;;;;0.6;0.5;;;;;;;6.23;91.4707;935.025;;;;
2020/10/25 04:14:40;;;;;;;0.6;0.6;;;;;;;6.18;92.32031;935.0047;;;;
2020/10/25 04:17:06;;;;;;;0.5;0.4;;;;;;;6.27;93.73926;935.0645;;;;
2020/10/25 04:19:31;;;;;;;0.4;0.4;;;;;;;6.05;94.6748;934.9997;;;;
2020/10/25 04:21:56;;;;;;;0.7;0.4;;;;;;;5.98;96.31055;935.032;;;;
2020/10/25 04:24:24;;;;;;;0.5;0.5;;;;;;;5.91;96.37109;934.983;;;;
2020/10/25 04:26:49;;;;;;;0.8;0.6;;;;;;;5.79;97.26172;935.0525;;;;
2020/10/25 04:29:14;;;;;;;0.6;0.5;;;;;;;5.83;97.1543;935.0299;;;;
2020/10/25 04:31:41;;;;;;;2;1;;;;;;;5.91;96.37109;935.0698;;;;
2020/10/25 04:34:06;;;;;;;3.4;1.7;;;;;;;5.77;97.24414;935.0292;;;;
2020/10/25 04:36:36;;;;;;;2.1;1.1;;;;;;;5.86;96.47363;935.0416;;;;
2020/10/25 04:39:00;;;;;;;1;0.8;;;;;;;5.78;96.98828;935.1283;;;;
2020/10/25 04:41:26;;;;;;;3.5;0.9;;;;;;;5.82;97.05273;935.1553;;;;
2020/10/25 04:43:51;;;;;;;0.7;0.6;;;;;;;5.85;96.93457;935.1125;;;;
2020/10/25 04:46:16;;;;;;;0.8;0.6;;;;;;;5.82;96.66895;935.1269;;;;
2020/10/25 04:48:45;;;;;;;0.9;0.5;;;;;;;5.92;96.36426;935.0639;;;;
2020/10/25 04:51:13;;;;;;;0.7;0.7;;;;;;;6.07;95.44922;934.9717;;;;
2020/10/25 04:53:38;;;;;;;0.4;0.4;;;;;;;6.23;94.07031;935.0709;;;;
2020/10/25 04:56:03;;;;;;;1;0.8;;;;;;;6.24;93.15723;934.9501;;;;
2020/10/25 04:58:29;;;;;;;1.2;0.9;;;;;;;6.3;92.4834;935.0344;;;;
2020/10/25 05:00:57;;;;;;;2.9;1.2;;;;;;;6.32;91.93066;934.9509;;;;
2020/10/25 05:03:23;;;;;;;2.6;1.5;;;;;;;6.19;92.1416;934.9766;;;;
2020/10/25 05:05:52;;;;;;;2.6;1.5;;;;;;;6.19;92.07324;934.9678;;;;
2020/10/25 05:08:18;;;;;;;4.1;1.7;;;;;;;6.18;91.7666;934.9203;;;;
2020/10/25 05:10:43;;;;;;;2.8;2;;;;;;;6.03;92.0498;934.936;;;;
2020/10/25 05:13:08;;;;;;;2.5;1.5;;;;;;;5.99;92.25488;934.916;;;;
2020/10/25 05:15:48;;;;;;;1.6;1.2;;;;;;;5.9;92.32715;934.873;;;;
2020/10/25 05:18:13;;;;;;;1.3;1;;;;;;;5.81;92.77051;934.8756;;;;
2020/10/25 05:20:40;;;;;;;1.3;1.1;;;;;;;5.59;93.98633;934.7713;;;;
2020/10/25 05:23:10;;;;;;;2.8;1.2;;;;;;;5.53;94.78711;934.6856;;;;
2020/10/25 05:25:41;;;;;;;1.7;1.3;;;;;;;5.73;93.87109;934.6057;;;;
2020/10/25 05:28:09;;;;;;;1.7;1.3;;;;;;;5.68;93.12695;934.6497;;;;
2020/10/25 05:30:36;;;;;;;2.9;1.3;;;;;;;5.53;96.39844;934.6484;;;;
2020/10/25 05:33:07;;;;;;;3.1;2.1;;;;;;;5.52;95.52734;934.6781;;;;
2020/10/25 05:35:33;;;;;;;2.2;1.8;;;;;;;5.52;95.04395;934.7241;;;;
2020/10/25 05:37:58;;;;;;;5.3;1.7;;;;;;;5.44;95.19531;934.7751;;;;
2020/10/25 05:40:23;;;;;;;3.3;2;;;;;;;5.56;94.79492;934.7186;;;;
2020/10/25 05:42:48;;;;;;;2.4;1.1;;;;;;;5.39;95.46582;934.7562;;;;
2020/10/25 05:45:13;;;;;;;1.6;0.9;;;;;;;5.21;96.8125;934.7332;;;;
2020/10/25 05:47:38;;;;;;;1.7;1;;;;;;;5.13;97.97949;934.8061;;;;
2020/10/25 05:50:04;;;;;;;2.7;1;;;;;;;5.16;98.03125;934.7469;;;;
2020/10/25 05:52:33;;;;;;;1;0.8;;;;;;;5.34;97.47461;934.7364;;;;
2020/10/25 05:54:58;;;;;;;1.5;0.9;;;;;;;5.49;96.58203;934.6295;;;;
2020/10/25 05:57:26;;;;;;;1.5;1.1;;;;;;;5.57;95.87793;934.6603;;;;
2020/10/25 05:59:52;;;;;;;1.6;1.1;;;;;;;5.73;95.39746;934.6563;;;;
2020/10/25 06:02:20;;;;;;;1.2;0.8;;;;;;;5.8;94.83398;934.6799;;;;
2020/10/25 06:04:45;;;;;;;0.6;0.6;;;;;;;5.83;95.44043;934.6342;;;;
2020/10/25 06:07:10;;;;;;;0.7;0.6;;;;;;;5.9;95.60352;934.5656;;;;
2020/10/25 06:09:35;;;;;;;1.8;0.7;;;;;;;6.01;94.94727;934.5765;;;;
2020/10/25 06:12:00;;;;;;;2.3;0.8;;;;;;;6.09;94.33496;934.5942;;;;
2020/10/25 06:14:26;;;;;;;1;0.7;;;;;;;6.15;93.5918;934.6509;;;;
2020/10/25 06:16:51;;;;;;;0.8;0.6;;;;;;;5.95;93.79688;934.5676;;;;
2020/10/25 06:19:20;;;;;;;1.4;0.7;;;;;;;5.87;95.67578;934.6042;;;;
2020/10/25 06:21:45;;;;;;;0.6;0.6;;;;;;;5.97;95.89063;934.7022;;;;
2020/10/25 06:24:10;;;;;;;0.9;0.9;;;;;;;5.99;95.0791;934.5666;;;;
2020/10/25 06:26:37;;;;;;;2;1.1;;;;;;;6.05;94.48438;934.6308;;;;
2020/10/25 06:29:02;;;;;;;1.6;0.8;;;;;;;6.08;94.35352;934.6683;;;;
2020/10/25 06:31:27;;;;;;;0.9;0.8;;;;;;;6.05;94.16602;934.6907;;;;
2020/10/25 06:33:55;;;;;;;5.3;1.5;;;;;;;6.03;94.4248;934.7173;;;;
2020/10/25 06:36:21;;;;;;;1.9;1.3;;;;;;;6.07;94.38672;934.7172;;;;
2020/10/25 06:38:46;;;;;;;2.4;1.4;;;;;;;6.13;94.93066;934.6021;;;;
2020/10/25 06:41:11;;;;;;;1.8;1.2;;;;;;;6.16;95.35645;934.6227;;;;
2020/10/25 06:43:39;;;;;;;5.1;2.4;;;;;;;6.19;94.84473;934.5884;;;;
2020/10/25 06:46:01;;;;;;;3.6;2.5;;;;;;;6.26;94.59668;934.5417;;;;
2020/10/25 06:48:27;;;;;;;2;1.2;;;;;;;6.3;94.76465;934.5717;;;;
2020/10/25 06:50:55;;;;;;;2.7;1;;;;;;;6.35;94.73145;934.6036;;;;
2020/10/25 06:53:22;;;;;;;2.3;0.8;;;;;;;6.37;95.48145;934.5818;;;;
2020/10/25 06:55:47;;;;;;;1;0.9;;;;;;;6.42;96.4668;934.5982;;;;
2020/10/25 06:58:13;;;;;;;8;0.7;;;;;;;6.59;95.98242;934.5948;;;;
2020/10/25 07:00:47;;;;;;;1.1;0.9;;;;;;;6.64;95.58594;934.4949;;;;
2020/10/25 07:03:12;;;;;;;2.5;0.8;;;;;;;6.81;95.35449;934.5464;;;;
2020/10/25 07:05:38;;;;;;;1.4;1.2;;;;;;;6.91;94.17383;934.5647;;;;
2020/10/25 07:08:03;;;;;;;2;1.4;;;;;;;6.89;94.39844;934.5114;;;;
2020/10/25 07:10:30;;;;;;;1.5;1;;;;;;;7.01;94.93555;934.4489;;;;
2020/10/25 07:12:55;;;;;;;1.5;0.9;;;;;;;7.36;94.49023;934.4649;;;;
2020/10/25 07:15:24;;;;;;;1.1;0.8;;;;;;;7.66;93.27246;934.3358;;;;
2020/10/25 07:17:52;;;;;;;5.9;2.1;;;;;;;7.87;91.98047;934.4088;;;;
2020/10/25 07:20:18;;;;;;;3.8;1.3;;;;;;;7.86;91.7627;934.2731;;;;
2020/10/25 07:22:44;;;;;;;2.6;1.6;;;;;;;8.06;91.19238;934.3575;;;;
2020/10/25 07:25:11;;;;;;;1.9;1;;;;;;;8.26;90.53223;934.2992;;;;
2020/10/25 07:27:39;;;;;;;1.4;0.7;;;;;;;8.39;89.93457;934.2462;;;;
2020/10/25 07:30:04;;;;;;;1.3;0.9;;;;;;;8.45;89.65039;934.2297;;;;
2020/10/25 07:32:29;;;;;;;1.2;0.6;;;;;;;8.61;89.45703;934.1877;;;;
2020/10/25 07:34:59;;;;;;;0.9;0.6;;;;;;;8.82;89.05664;934.218;;;;
2020/10/25 07:37:27;;;;;;;0.6;0.6;;;;;;;9.35;87.8457;934.1905;;;;
2020/10/25 07:39:52;;;;;;;1.6;0.8;;;;;;;9.65;85.48926;934.1866;;;;
2020/10/25 07:42:18;;;;;;;0.6;0.5;;;;;;;9.96;84.22852;934.0535;;;;
2020/10/25 07:44:43;;;;;;;0.7;0.6;;;;;;;10.13;82.78125;934.1245;;;;
2020/10/25 07:47:08;;;;;;;1;0.7;;;;;;;10.74;80.81836;934.0861;;;;
2020/10/25 07:49:33;;;;;;;0.7;0.5;;;;;;;11.32;77.08301;934.0547;;;;
2020/10/25 07:51:58;;;;;;;1.2;0.8;;;;;;;11.81;75.29102;934.0223;;;;
2020/10/25 07:54:25;;;;;;;1.6;0.7;;;;;;;12.28;72.79492;933.9426;;;;
2020/10/25 07:56:50;;;;;;;0.5;0.4;;;;;;;13.08;70.39063;933.9728;;;;
2020/10/25 07:59:16;;;;;;;1.6;0.7;;;;;;;13.41;68.06543;933.8613;;;;
2020/10/25 08:01:41;;;;;;;6.4;0.5;;;;;;;13.15;68.71289;933.9763;;;;
2020/10/25 08:04:07;;;;;;;0.7;0.6;;;;;;;13.76;67.07324;933.9066;;;;
2020/10/25 08:06:32;;;;;;;1;0.5;;;;;;;13.43;68.18262;933.8766;;;;
2020/10/25 08:09:06;;;;;;;0.6;0.4;;;;;;;13.47;69.00488;933.853;;;;
2020/10/25 08:11:31;;;;;;;3.3;0.7;;;;;;;13.43;69.23926;933.8398;;;;
2020/10/25 08:13:57;;;;;;;3.2;1.5;;;;;;;12.81;73.14648;933.8254;;;;
2020/10/25 08:16:22;;;;;;;0.7;0.5;;;;;;;12.74;71.81641;933.7906;;;;
2020/10/25 08:18:47;;;;;;;1;0.8;;;;;;;12.43;73.4375;933.7562;;;;
2020/10/25 08:21:12;;;;;;;1.5;0.7;;;;;;;12.43;73.8418;933.7075;;;;
2020/10/25 08:23:37;;;;;;;1.1;0.6;;;;;;;12.56;74.20605;933.7043;;;;
2020/10/25 08:26:02;;;;;;;2;0.4;;;;;;;12.43;72.85547;933.5494;;;;
2020/10/25 08:28:30;;;;;;;0.1;0.1;;;;;;;12.8;70.00098;933.4891;;;;
2020/10/25 08:30:55;;;;;;;0.8;0.4;;;;;;;13.29;69.95313;933.5184;;;;
2020/10/25 08:33:20;;;;;;;2.4;0.7;;;;;;;13.48;68.21289;933.4306;;;;
2020/10/25 08:35:50;;;;;;;0.3;0.2;;;;;;;13.34;67.85742;933.3789;;;;
2020/10/25 08:38:17;;;;;;;1.7;0.3;;;;;;;13.39;67.08496;933.3055;;;;
2020/10/25 08:40:43;;;;;;;0.8;0.3;;;;;;;13.26;67.71973;933.35;;;;
2020/10/25 08:43:08;;;;;;;0.7;0.3;;;;;;;13.44;67.63281;933.2838;;;;
2020/10/25 08:45:35;;;;;;;0;0;;;;;;;13.33;66.32715;933.2622;;;;
2020/10/25 08:48:02;;;;;;;0.8;0.3;;;;;;;13.14;65.09277;933.2553;;;;
2020/10/25 08:50:25;;;;;;;0.2;0.2;;;;;;;13.36;65.96484;933.2636;;;;
2020/10/25 08:52:50;;;;;;;0.4;0.3;;;;;;;13.62;65.74023;933.2311;;;;
2020/10/25 08:55:15;;;;;;;1.1;0.4;;;;;;;13.82;65.9082;933.186;;;;
2020/10/25 08:57:42;;;;;;;0.4;0.4;;;;;;;13.69;67.95898;933.1928;;;;
2020/10/25 09:00:08;;;;;;;0.7;0.6;;;;;;;13.77;68.29297;933.1454;;;;
2020/10/25 09:02:34;;;;;;;0.4;0.4;;;;;;;13.78;67.51367;933.0117;;;;
2020/10/25 09:04:59;;;;;;;0.1;0.1;;;;;;;13.85;68.01953;932.8928;;;;
2020/10/25 09:07:25;;;;;;;0.3;0.2;;;;;;;13.72;69.59668;932.8388;;;;
2020/10/25 09:09:50;;;;;;;0.2;0.2;;;;;;;14.03;69.16211;932.8325;;;;
2020/10/25 09:12:18;;;;;;;0.3;0.3;;;;;;;14.12;69.33984;932.7961;;;;
2020/10/25 09:14:44;;;;;;;0.3;0.3;;;;;;;14.36;69.41113;932.822;;;;
2020/10/25 09:17:08;;;;;;;0.8;0.5;;;;;;;14.58;68.54688;932.7978;;;;
2020/10/25 09:19:36;;;;;;;0.8;0.4;;;;;;;14.33;67.5166;932.7824;;;;
2020/10/25 09:22:01;;;;;;;0.7;0.6;;;;;;;14.52;66.92383;932.693;;;;
2020/10/25 09:24:29;;;;;;;1.7;1.2;;;;;;;14.33;67.83887;932.659;;;;
2020/10/25 09:26:56;;;;;;;3.5;1.4;;;;;;;14.47;68.75879;932.6312;;;;
2020/10/25 09:29:25;;;;;;;1;0.6;;;;;;;14.47;69.68164;932.5726;;;;
2020/10/25 09:31:50;;;;;;;1.7;1;;;;;;;14.44;67.37305;932.5652;;;;
2020/10/25 09:34:16;;;;;;;0.6;0.4;;;;;;;14.51;68.22461;932.5048;;;;
2020/10/25 09:36:41;;;;;;;0.2;0.2;;;;;;;14.78;67.58691;932.5427;;;;
2020/10/25 09:39:08;;;;;;;0.1;0.1;;;;;;;14.87;63.47168;932.5069;;;;
2020/10/25 09:41:33;;;;;;;0.2;0.2;;;;;;;15.01;64.51855;932.5134;;;;
2020/10/25 09:43:59;;;;;;;0.3;0.3;;;;;;;15.08;61.86426;932.5262;;;;
2020/10/25 09:46:26;;;;;;;0.9;0.5;;;;;;;15.16;60.14551;932.4325;;;;
2020/10/25 09:48:52;;;;;;;0;0;;;;;;;15.27;58.36035;932.4069;;;;
2020/10/25 09:51:17;;;;;;;0.2;0.1;;;;;;;15.25;57.20215;932.3094;;;;
2020/10/25 09:53:44;;;;;;;0.1;0.1;;;;;;;15.34;56.47461;932.2299;;;;
2020/10/25 09:56:09;;;;;;;0.2;0;;;;;;;15.59;55.12109;932.1792;;;;
2020/10/25 09:58:36;;;;;;;0.3;0.3;;;;;;;15.62;54.19043;932.1869;;;;
2020/10/25 10:01:01;;;;;;;0.4;0.2;;;;;;;15.73;55.3584;932.1583;;;;
2020/10/25 10:03:26;;;;;;;0.1;0.1;;;;;;;16.05;56.29004;932.1537;;;;
2020/10/25 10:05:55;;;;;;;0;0;;;;;;;16.18;52.17676;932.1767;;;;
2020/10/25 10:08:21;;;;;;;0;0;;;;;;;16.56;52.74316;932.1028;;;;
2020/10/25 10:10:50;;;;;;;0.1;0.1;;;;;;;16.86;52.08398;932.156;;;;
2020/10/25 10:13:18;;;;;;;0;0;;;;;;;16.96;53.45117;932.082;;;;
2020/10/25 10:15:43;;;;;;;1.1;0.5;;;;;;;17.24;53.52051;932.0873;;;;
2020/10/25 10:18:09;;;;;;;1;0.8;;;;;;;17.22;55.80273;932.0541;;;;
2020/10/25 10:20:34;;;;;;;1;0.3;;;;;;;17.37;57.3291;931.9961;;;;
2020/10/25 10:22:59;;;;;;;0.6;0.4;;;;;;;17.51;55.94434;931.8455;;;;
2020/10/25 10:25:24;;;;;;;0.3;0.3;;;;;;;17.56;54.40625;931.8538;;;;
2020/10/25 10:27:54;;;;;;;0.3;0.2;;;;;;;17.63;54.69434;931.7354;;;;
2020/10/25 10:30:25;;;;;;;0.1;0.1;;;;;;;17.76;54.02637;931.6883;;;;
2020/10/25 10:32:53;;;;;;;0;0;;;;;;;17.82;54.87988;931.6757;;;;
2020/10/25 10:35:19;;;;;;;1.3;0.6;;;;;;;17.74;53.58105;931.5874;;;;
2020/10/25 10:37:44;;;;;;;0;0;;;;;;;17.7;52.31055;931.5623;;;;
2020/10/25 10:40:22;;;;;;;0.1;0.1;;;;;;;17.81;53.33496;931.6379;;;;
2020/10/25 10:42:53;;;;;;;0;0;;;;;;;17.88;52.93652;931.488;;;;
2020/10/25 10:45:26;;;;;;;0.5;0;;;;;;;18.08;50.11426;931.3267;;;;
2020/10/25 10:47:57;;;;;;;0;0;;;;;;;18.44;52.00391;931.3178;;;;
2020/10/25 10:50:23;;;;;;;0;0;;;;;;;18.41;50.55859;931.291;;;;
2020/10/25 10:52:49;;;;;;;0.8;0.4;;;;;;;18.46;50.84277;931.3372;;;;
2020/10/25 10:55:20;;;;;;;0;0;;;;;;;18.59;49.80078;931.2645;;;;
2020/10/25 10:57:45;;;;;;;0.1;0.1;;;;;;;18.65;48.78418;931.264;;;;
2020/10/25 11:00:22;;;;;;;0.1;0.1;;;;;;;18.77;50.93848;931.2486;;;;
2020/10/25 11:02:47;;;;;;;0.2;0.1;;;;;;;18.66;47.5166;931.2433;;;;
2020/10/25 11:05:18;;;;;;;1.4;0.2;;;;;;;19.02;50.32715;931.21;;;;
2020/10/25 11:07:48;;;;;;;0;0;;;;;;;19.41;44.76758;931.1594;;;;
2020/10/25 11:10:13;;;;;;;0;0;;;;;;;19.91;43.7666;931.0907;;;;
2020/10/25 11:12:38;;;;;;;0.4;0.4;;;;;;;20.91;45.44531;931.0636;;;;
2020/10/25 11:15:04;;;;;;;0.7;0.5;;;;;;;21.87;41.89941;931.0616;;;;
2020/10/25 11:17:29;;;;;;;1.4;0.8;;;;;;;21.72;41.03027;931.0494;;;;
2020/10/25 11:19:56;;;;;;;1.1;0.4;;;;;;;22.47;40.18457;931.0298;;;;
2020/10/25 11:22:21;;;;;;;0.6;0.2;;;;;;;22.68;39.20605;930.9346;;;;
2020/10/25 11:24:47;;;;;;;0.4;0.3;;;;;;;22.95;35.76465;930.9089;;;;
2020/10/25 11:27:13;;;;;;;0.3;0.2;;;;;;;22.84;37;930.8611;;;;
2020/10/25 11:29:38;;;;;;;0;0;;;;;;;23.75;35.60449;930.7051;;;;
2020/10/25 11:32:03;;;;;;;0.4;0.4;;;;;;;24.34;33.6377;930.6584;;;;
2020/10/25 11:34:28;;;;;;;0;0;;;;;;;24.48;32.91797;930.6099;;;;
2020/10/25 11:36:53;;;;;;;0;0;;;;;;;23.87;33.02441;930.5974;;;;
2020/10/25 11:39:20;;;;;;;0.1;0;;;;;;;24.26;33.41992;930.5342;;;;
2020/10/25 11:41:45;;;;;;;0;0;;;;;;;24.07;30.55664;930.4333;;;;
2020/10/25 11:44:10;;;;;;;0.1;0.1;;;;;;;24.09;31.91113;930.4309;;;;
2020/10/25 11:46:37;;;;;;;0;0;;;;;;;24.67;31.52832;930.384;;;;
2020/10/25 11:49:02;;;;;;;0.1;0.1;;;;;;;25.83;30.45215;930.3875;;;;
2020/10/25 11:51:27;;;;;;;0.3;0.2;;;;;;;26.02;28.32422;930.3864;;;;
2020/10/25 11:53:52;;;;;;;0.5;0.4;;;;;;;26.74;29.87402;930.33;;;;
2020/10/25 11:56:17;;;;;;;0.2;0.2;;;;;;;27.26;29.36328;930.3272;;;;
2020/10/25 11:58:42;;;;;;;0;0;;;;;;;26.89;30.55957;930.3169;;;;
2020/10/25 12:01:07;;;;;;;0;0;;;;;;;27;27.48535;930.1747;;;;
2020/10/25 12:03:36;;;;;;;0;0;;;;;;;26.99;27.92285;929.9666;;;;
2020/10/25 12:06:01;;;;;;;1.2;0.1;;;;;;;28.2;28.85449;929.9653;;;;
2020/10/25 12:08:29;;;;;;;0.2;0.2;;;;;;;28.83;25.22852;929.9359;;;;
2020/10/25 12:10:54;;;;;;;0.1;0;;;;;;;29.68;23.08301;929.8667;;;;
2020/10/25 12:13:20;;;;;;;0;0;;;;;;;29.88;23.99902;929.7943;;;;
2020/10/25 12:15:50;;;;;;;0;0;;;;;;;30.75;22.20508;929.7855;;;;
2020/10/25 12:18:16;;;;;;;0;0;;;;;;;29.8;23.92383;929.8;;;;
2020/10/25 12:20:43;;;;;;;0.1;0.1;;;;;;;30.45;22.95508;929.775;;;;
2020/10/25 12:23:09;;;;;;;0.1;0.1;;;;;;;31.06;22.81836;929.8063;;;;
2020/10/25 12:25:33;;;;;;;0.4;0.1;;;;;;;30.72;23.33887;929.7562;;;;
2020/10/25 12:27:58;;;;;;;0.2;0.1;;;;;;;31.9;21.0752;929.6945;;;;
2020/10/25 12:30:28;;;;;;;0.1;0;;;;;;;31.5;20.09961;929.5814;;;;
2020/10/25 12:32:55;;;;;;;0.1;0.1;;;;;;;31.35;20.65527;929.5428;;;;
2020/10/25 12:35:20;;;;;;;0;0;;;;;;;31.02;21.10645;929.5255;;;;
2020/10/25 12:37:48;;;;;;;0.3;0.1;;;;;;;31.8;20.67578;929.5055;;;;
2020/10/25 12:40:13;;;;;;;1.1;0.1;;;;;;;33.43;19.75195;929.4796;;;;
2020/10/25 12:42:37;;;;;;;0;0;;;;;;;32.73;17.62109;929.481;;;;
2020/10/25 12:45:04;;;;;;;0.4;0.1;;;;;;;29.87;20.33691;929.4724;;;;
2020/10/25 12:47:31;;;;;;;0.1;0.1;;;;;;;30.95;20.55273;929.39;;;;
2020/10/25 12:49:56;;;;;;;0.1;0.1;;;;;;;32.62;19.38086;929.3044;;;;
2020/10/25 12:52:21;;;;;;;0;0;;;;;;;31.95;18.90918;929.2228;;;;
2020/10/25 12:54:49;;;;;;;0.1;0.1;;;;;;;31.98;20.51563;929.1711;;;;
2020/10/25 12:57:14;;;;;;;0.1;0.1;;;;;;;32.48;19.79492;929.1213;;;;
2020/10/25 12:59:41;;;;;;;0;0;;;;;;;31.71;18.9834;929.1714;;;;
2020/10/25 13:02:06;;;;;;;0;0;;;;;;;31.91;20.93164;929.0953;;;;
2020/10/25 13:04:31;;;;;;;0.1;0.1;;;;;;;32.82;18.68066;929.1028;;;;
2020/10/25 13:06:56;;;;;;;0.2;0.2;;;;;;;32.12;19.9834;929.1166;;;;
2020/10/25 13:09:25;;;;;;;0.2;0.1;;;;;;;32.89;18.16797;929.0482;;;;
2020/10/25 13:11:50;;;;;;;0;0;;;;;;;33.34;19.00293;929.0248;;;;
2020/10/25 13:14:18;;;;;;;0;0;;;;;;;32.28;18.14258;928.935;;;;
2020/10/25 13:16:44;;;;;;;0.3;0;;;;;;;33.32;18.89355;928.9614;;;;
2020/10/25 13:19:10;;;;;;;0;0;;;;;;;33.67;18.95703;928.9556;;;;
2020/10/25 13:21:34;;;;;;;0;0;;;;;;;31.95;18.88477;928.883;;;;
2020/10/25 13:23:59;;;;;;;0.1;0.1;;;;;;;31.54;22.89063;928.9508;;;;
2020/10/25 13:26:25;;;;;;;0.4;0.1;;;;;;;30.29;21.35938;928.9266;;;;
2020/10/25 13:28:51;;;;;;;0;0;;;;;;;30.59;21.54004;928.8445;;;;
2020/10/25 13:31:18;;;;;;;0.2;0.1;;;;;;;31.76;20.67383;928.7505;;;;
2020/10/25 13:33:47;;;;;;;0;0;;;;;;;31.77;20.09961;928.7452;;;;
2020/10/25 13:36:12;;;;;;;0.3;0.1;;;;;;;32.37;20.42578;928.7114;;;;
2020/10/25 13:38:41;;;;;;;0.1;0.1;;;;;;;32.99;19.60059;928.7422;;;;
2020/10/25 13:41:07;;;;;;;0.7;0;;;;;;;33.94;18.89551;928.7297;;;;
2020/10/25 13:43:32;;;;;;;0.1;0.1;;;;;;;34.69;19.03516;928.7297;;;;
2020/10/25 13:46:00;;;;;;;0.5;0.2;;;;;;;35.48;17.9209;928.7689;;;;
2020/10/25 13:48:26;;;;;;;0.8;0.3;;;;;;;34.38;18.58789;928.7589;;;;
2020/10/25 13:50:56;;;;;;;0.1;0.1;;;;;;;31.37;20.53613;928.6425;;;;
2020/10/25 13:53:23;;;;;;;0;0;;;;;;;32.74;21.49805;928.7065;;;;
2020/10/25 13:55:52;;;;;;;0;0;;;;;;;33.27;20.92285;928.6786;;;;
2020/10/25 13:58:20;;;;;;;0.2;0.1;;;;;;;33.9;19.2666;928.7255;;;;
2020/10/25 14:00:46;;;;;;;0;0;;;;;;;34.56;18.77637;928.7416;;;;
2020/10/25 14:03:14;;;;;;;1;0.4;;;;;;;33.63;19.15918;928.7594;;;;
2020/10/25 14:05:39;;;;;;;0.2;0.1;;;;;;;34.25;19.08887;928.7855;;;;
2020/10/25 14:08:04;;;;;;;0;0;;;;;;;35.08;19.77539;928.7325;;;;
2020/10/25 14:10:29;;;;;;;1.2;0.6;;;;;;;35.53;19.48047;928.7455;;;;
2020/10/25 14:12:58;;;;;;;1.4;0.7;;;;;;;34.92;20.16602;928.6946;;;;
2020/10/25 14:15:29;;;;;;;1.2;0.4;;;;;;;34.93;20.9873;928.7195;;;;
2020/10/25 14:17:53;;;;;;;0.2;0.2;;;;;;;35;20.83398;928.6561;;;;
2020/10/25 14:20:18;;;;;;;0.1;0.1;;;;;;;32.63;24.97363;928.628;;;;
2020/10/25 14:22:45;;;;;;;0;0;;;;;;;31.92;26.92383;928.598;;;;
2020/10/25 14:25:08;;;;;;;0.1;0.1;;;;;;;31.42;28.06738;928.7056;;;;
2020/10/25 14:27:34;;;;;;;5.9;0.5;;;;;;;31.53;28.08594;928.7761;;;;
2020/10/25 14:30:02;;;;;;;0.3;0.3;;;;;;;29.78;30.85156;928.7701;;;;
2020/10/25 14:32:24;;;;;;;0.3;0.2;;;;;;;29.5;31.64258;928.7144;;;;
2020/10/25 14:34:50;;;;;;;0.1;0.1;;;;;;;28.42;33.32617;928.6346;;;;
2020/10/25 14:37:15;;;;;;;0.2;0.2;;;;;;;27.77;34.98828;928.5961;;;;
2020/10/25 14:39:42;;;;;;;0.2;0.2;;;;;;;27.44;35.55664;928.5637;;;;
2020/10/25 14:42:07;;;;;;;0.4;0.2;;;;;;;26.39;37.46094;928.5865;;;;
2020/10/25 14:44:37;;;;;;;3.3;0.7;;;;;;;26.31;37.92676;928.6259;;;;
2020/10/25 14:47:03;;;;;;;3.3;0.5;;;;;;;25.48;39.45215;928.6769;;;;
2020/10/25 14:49:31;;;;;;;0.1;0.1;;;;;;;26;37.99609;928.6701;;;;
2020/10/25 14:51:56;;;;;;;0.2;0.2;;;;;;;25.87;37.87891;928.7123;;;;
2020/10/25 14:54:21;;;;;;;0.3;0.1;;;;;;;25.69;38.92676;928.7111;;;;
2020/10/25 14:56:49;;;;;;;0.1;0.1;;;;;;;26.24;38.0293;928.7447;;;;
2020/10/25 14:59:14;;;;;;;0.2;0.1;;;;;;;25.34;39.36914;928.8075;;;;
2020/10/25 15:01:39;;;;;;;0.1;0.1;;;;;;;24.48;41.35547;928.8474;;;;
2020/10/25 15:04:08;;;;;;;0.2;0.1;;;;;;;24.31;41.57617;928.861;;;;
2020/10/25 15:06:37;;;;;;;0.3;0.2;;;;;;;23.79;42.61035;928.8069;;;;
2020/10/25 15:09:01;;;;;;;1.9;0.4;;;;;;;23.1;44.23633;928.8567;;;;
2020/10/25 15:11:34;;;;;;;8.7;0.3;;;;;;;22.57;45.47461;928.8747;;;;
2020/10/25 15:14:00;;;;;;;0.3;0.3;;;;;;;20.64;50.83887;928.8719;;;;
2020/10/25 15:16:30;;;;;;;0.1;0.1;;;;;;;19.94;52.9502;928.8683;;;;
2020/10/25 15:18:55;;;;;;;0.3;0.2;;;;;;;19.44;54.81348;928.9522;;;;
2020/10/25 15:21:20;;;;;;;0.3;0.2;;;;;;;18.81;57.14355;929.0187;;;;
2020/10/25 15:23:47;;;;;;;2.9;0.3;;;;;;;18.69;57.31445;928.9779;;;;
2020/10/25 15:26:13;;;;;;;1.4;0.7;;;;;;;18.34;58.49121;928.9678;;;;
2020/10/25 15:28:38;;;;;;;0.6;0.6;;;;;;;17.92;60.07129;928.9052;;;;
2020/10/25 15:31:07;;;;;;;1.6;1.2;;;;;;;17.99;60.01074;928.8876;;;;
2020/10/25 15:33:32;;;;;;;0.3;0.3;;;;;;;17.48;61.74023;928.8608;;;;
2020/10/25 15:35:58;;;;;;;0.6;0.4;;;;;;;17.19;63.62402;928.8855;;;;
2020/10/25 15:38:26;;;;;;;0.5;0.4;;;;;;;16.93;64.4668;928.926;;;;
2020/10/25 15:40:53;;;;;;;0.2;0.2;;;;;;;17.24;63.45801;928.9357;;;;